Roaming Rock Shores, Ohio
Current Conditions -  °F | °C
As of 2:53 PM on Sunday 23 Nov 2014 (Local Time) from KHZY Reporting Station
Overcast Overcast  
Wind Chill: 12°   Ceiling: 5000
Heat Index: 12°   Visibility: 10mi
Dew Point:   Wind: 10mph
Humidity: 61%   Direction: 150°SSE
Pressure: 29.88"   Gusts: NA
Location:  41.6051°N, 80.867°W
Report Text: KHZY 231953Z AUTO 15009KT 10SM OVC050 12/04 A2988 RMK AO2 SLP118 T01170044
Loading
Personal Weather Stations






























Interactive Weather Map New forecast layout! Learn more

10-Day Weather Forecast

Advertisements
Track Severe Weather on mobile